AAY817 KMFR-KPVU
Flight info
| Callsign | AAY817 |
|---|---|
| Flight time | 1h 17m |
| Altitude | 37000 |
| Route | WZZRD BVL WAATS |
| Aircraft | A320/M-SDE3FGHIRWY/LB1 |
Departure
| Time | 2026-04-23 20:08 |
|---|---|
| Airport | Rogue Valley International-Medford Airport (KMFR) |
Arrival
| Time | 2026-04-23 21:25 |
|---|---|
| Airport | Provo Municipal Airport (KPVU) |
| Time | Latitude | Longitude | Altitude | Speed | Heading |
|---|---|---|---|---|---|
| 2026-04-23 19:45 | 42.37006 | -122.87417 | 1326 ft | 0 kts | 248° |
| 2026-04-23 19:58 | 42.37009 | -122.87409 | 1324 ft | 4 kts | 251° |
| 2026-04-23 19:58 | 42.37014 | -122.87374 | 1330 ft | 4 kts | 278° |
| 2026-04-23 19:58 | 42.37005 | -122.87341 | 1330 ft | 4 kts | 312° |
| 2026-04-23 19:58 | 42.36992 | -122.87327 | 1331 ft | 0 kts | 335° |
| 2026-04-23 20:01 | 42.37001 | -122.87332 | 1352 ft | 3 kts | 338° |
| 2026-04-23 20:02 | 42.37023 | -122.87324 | 1325 ft | 4 kts | 33° |
| 2026-04-23 20:02 | 42.37053 | -122.87298 | 1324 ft | 6 kts | 33° |
| 2026-04-23 20:02 | 42.37099 | -122.87283 | 1323 ft | 10 kts | 351° |
| 2026-04-23 20:02 | 42.37170 | -122.87319 | 1322 ft | 11 kts | 338° |
| 2026-04-23 20:03 | 42.37242 | -122.87357 | 1320 ft | 11 kts | 339° |
| 2026-04-23 20:03 | 42.37311 | -122.87393 | 1319 ft | 10 kts | 339° |
| 2026-04-23 20:03 | 42.37376 | -122.87428 | 1318 ft | 10 kts | 339° |
| 2026-04-23 20:03 | 42.37438 | -122.87460 | 1317 ft | 9 kts | 339° |
| 2026-04-23 20:04 | 42.37498 | -122.87492 | 1316 ft | 9 kts | 339° |
| 2026-04-23 20:04 | 42.37557 | -122.87523 | 1315 ft | 9 kts | 339° |
| 2026-04-23 20:04 | 42.37612 | -122.87552 | 1314 ft | 8 kts | 340° |
| 2026-04-23 20:04 | 42.37668 | -122.87580 | 1313 ft | 11 kts | 339° |
| 2026-04-23 20:05 | 42.37797 | -122.87647 | 1311 ft | 28 kts | 338° |
| 2026-04-23 20:05 | 42.37968 | -122.87737 | 1308 ft | 27 kts | 340° |
| 2026-04-23 20:05 | 42.38148 | -122.87829 | 1304 ft | 29 kts | 339° |
| 2026-04-23 20:05 | 42.38299 | -122.87911 | 1301 ft | 23 kts | 338° |
| 2026-04-23 20:06 | 42.38436 | -122.87982 | 1299 ft | 19 kts | 339° |
| 2026-04-23 20:06 | 42.38538 | -122.88034 | 1297 ft | 15 kts | 339° |
| 2026-04-23 20:06 | 42.38599 | -122.87974 | 1295 ft | 11 kts | 66° |
| 2026-04-23 20:06 | 42.38586 | -122.87898 | 1295 ft | 8 kts | 154° |
| 2026-04-23 20:07 | 42.38547 | -122.87878 | 1296 ft | 4 kts | 159° |
| 2026-04-23 20:07 | 42.38462 | -122.87834 | 1297 ft | 42 kts | 158° |
| 2026-04-23 20:07 | 42.37908 | -122.87546 | 1311 ft | 126 kts | 159° |
| 2026-04-23 20:07 | 42.36880 | -122.87015 | 1455 ft | 181 kts | 159° |
| 2026-04-23 20:08 | 42.35670 | -122.86402 | 2346 ft | 189 kts | 159° |
| 2026-04-23 20:08 | 42.34435 | -122.85783 | 3283 ft | 186 kts | 159° |
| 2026-04-23 20:08 | 42.33239 | -122.85156 | 4008 ft | 191 kts | 155° |
| 2026-04-23 20:08 | 42.32173 | -122.83969 | 4291 ft | 212 kts | 121° |
| 2026-04-23 20:09 | 42.31860 | -122.81967 | 4566 ft | 233 kts | 78° |
| 2026-04-23 20:09 | 42.32619 | -122.80002 | 4961 ft | 254 kts | 46° |
| 2026-04-23 20:09 | 42.33955 | -122.78347 | 5634 ft | 265 kts | 37° |
| 2026-04-23 20:09 | 42.35433 | -122.76830 | 6538 ft | 268 kts | 35° |
| 2026-04-23 20:10 | 42.36441 | -122.75845 | 7101 ft | 271 kts | 34° |
| 2026-04-23 20:10 | 42.38501 | -122.73838 | 8291 ft | 275 kts | 35° |
| 2026-04-23 20:10 | 42.40049 | -122.72292 | 9175 ft | 278 kts | 35° |
| 2026-04-23 20:10 | 42.41605 | -122.70708 | 10059 ft | 282 kts | 36° |
| 2026-04-23 20:11 | 42.43212 | -122.69047 | 10478 ft | 302 kts | 36° |
| 2026-04-23 20:11 | 42.44910 | -122.67270 | 10824 ft | 321 kts | 36° |
| 2026-04-23 20:11 | 42.46694 | -122.65384 | 11491 ft | 328 kts | 37° |
| 2026-04-23 20:11 | 42.48505 | -122.63459 | 12223 ft | 333 kts | 37° |
| 2026-04-23 20:12 | 42.50340 | -122.61508 | 12991 ft | 337 kts | 37° |
| 2026-04-23 20:12 | 42.52198 | -122.59534 | 13752 ft | 341 kts | 37° |
| 2026-04-23 20:12 | 42.54077 | -122.57540 | 14434 ft | 345 kts | 37° |
| 2026-04-23 20:12 | 42.55975 | -122.55521 | 15069 ft | 349 kts | 38° |
| 2026-04-23 20:13 | 42.57621 | -122.53080 | 15679 ft | 356 kts | 57° |
| 2026-04-23 20:13 | 42.58578 | -122.49969 | 16292 ft | 363 kts | 77° |
| 2026-04-23 20:13 | 42.58658 | -122.46536 | 16911 ft | 369 kts | 98° |
| 2026-04-23 20:13 | 42.58108 | -122.43120 | 17535 ft | 373 kts | 102° |
| 2026-04-23 20:14 | 42.57522 | -122.39726 | 18168 ft | 376 kts | 102° |
| 2026-04-23 20:14 | 42.56919 | -122.36252 | 18735 ft | 380 kts | 102° |
| 2026-04-23 20:14 | 42.56313 | -122.32748 | 19289 ft | 383 kts | 102° |
| 2026-04-23 20:14 | 42.55702 | -122.29209 | 19814 ft | 387 kts | 102° |
| 2026-04-23 20:15 | 42.55087 | -122.25642 | 20369 ft | 390 kts | 102° |
| 2026-04-23 20:15 | 42.54466 | -122.22046 | 20889 ft | 393 kts | 102° |
| 2026-04-23 20:15 | 42.53838 | -122.18414 | 21384 ft | 397 kts | 102° |
| 2026-04-23 20:15 | 42.53205 | -122.14760 | 21913 ft | 400 kts | 102° |
| 2026-04-23 20:16 | 42.52575 | -122.11132 | 22465 ft | 402 kts | 102° |
| 2026-04-23 20:16 | 42.51930 | -122.07432 | 22983 ft | 405 kts | 102° |
| 2026-04-23 20:16 | 42.51278 | -122.03707 | 23476 ft | 407 kts | 102° |
| 2026-04-23 20:16 | 42.50623 | -121.99959 | 23923 ft | 410 kts | 102° |
| 2026-04-23 20:17 | 42.49964 | -121.96186 | 24326 ft | 413 kts | 102° |
| 2026-04-23 20:17 | 42.49301 | -121.92390 | 24741 ft | 415 kts | 102° |
| 2026-04-23 20:17 | 42.48632 | -121.88568 | 25123 ft | 418 kts | 102° |
| 2026-04-23 20:17 | 42.47958 | -121.84722 | 25510 ft | 421 kts | 102° |
| 2026-04-23 20:18 | 42.47276 | -121.80849 | 25895 ft | 424 kts | 102° |
| 2026-04-23 20:18 | 42.46597 | -121.77011 | 26290 ft | 426 kts | 102° |
| 2026-04-23 20:18 | 42.45901 | -121.73097 | 26675 ft | 428 kts | 102° |
| 2026-04-23 20:18 | 42.45199 | -121.69166 | 27056 ft | 431 kts | 102° |
| 2026-04-23 20:19 | 42.44492 | -121.65211 | 27429 ft | 433 kts | 102° |
| 2026-04-23 20:19 | 42.43781 | -121.61238 | 27813 ft | 436 kts | 102° |
| 2026-04-23 20:19 | 42.43068 | -121.57245 | 28230 ft | 437 kts | 102° |
| 2026-04-23 20:19 | 42.42353 | -121.53244 | 28604 ft | 439 kts | 102° |
| 2026-04-23 20:20 | 42.41631 | -121.49221 | 28985 ft | 441 kts | 102° |
| 2026-04-23 20:20 | 42.40902 | -121.45181 | 29314 ft | 444 kts | 102° |
| 2026-04-23 20:20 | 42.40164 | -121.41104 | 29628 ft | 447 kts | 102° |
| 2026-04-23 20:20 | 42.39422 | -121.37006 | 29957 ft | 450 kts | 102° |
| 2026-04-23 20:21 | 42.38687 | -121.32943 | 30272 ft | 452 kts | 102° |
| 2026-04-23 20:21 | 42.37937 | -121.28801 | 30561 ft | 454 kts | 102° |
| 2026-04-23 20:21 | 42.37183 | -121.24647 | 30854 ft | 455 kts | 102° |
| 2026-04-23 20:21 | 42.36427 | -121.20486 | 31137 ft | 457 kts | 102° |
| 2026-04-23 20:22 | 42.35665 | -121.16315 | 31435 ft | 458 kts | 102° |
| 2026-04-23 20:22 | 42.34897 | -121.12130 | 31722 ft | 459 kts | 102° |
| 2026-04-23 20:22 | 42.34130 | -121.07953 | 32117 ft | 457 kts | 102° |
| 2026-04-23 20:22 | 42.33364 | -121.03801 | 32597 ft | 453 kts | 102° |
| 2026-04-23 20:23 | 42.32602 | -120.99675 | 33044 ft | 451 kts | 102° |
| 2026-04-23 20:23 | 42.31853 | -120.95632 | 33456 ft | 449 kts | 102° |
| 2026-04-23 20:23 | 42.31094 | -120.91547 | 33880 ft | 447 kts | 102° |
| 2026-04-23 20:23 | 42.30338 | -120.87485 | 34259 ft | 446 kts | 102° |
| 2026-04-23 20:24 | 42.29583 | -120.83431 | 34555 ft | 445 kts | 102° |
| 2026-04-23 20:24 | 42.28825 | -120.79366 | 34783 ft | 447 kts | 102° |
| 2026-04-23 20:24 | 42.28063 | -120.75291 | 34996 ft | 448 kts | 102° |
| 2026-04-23 20:24 | 42.27297 | -120.71205 | 35206 ft | 450 kts | 103° |
| 2026-04-23 20:25 | 42.26527 | -120.67109 | 35407 ft | 451 kts | 103° |
| 2026-04-23 20:25 | 42.25755 | -120.62995 | 35587 ft | 454 kts | 103° |
| 2026-04-23 20:25 | 42.24986 | -120.58905 | 35713 ft | 457 kts | 103° |
| 2026-04-23 20:25 | 42.24201 | -120.54741 | 35890 ft | 459 kts | 103° |
| 2026-04-23 20:26 | 42.23412 | -120.50566 | 36105 ft | 459 kts | 103° |
| 2026-04-23 20:26 | 42.22622 | -120.46389 | 36303 ft | 460 kts | 103° |
| 2026-04-23 20:26 | 42.21826 | -120.42197 | 36486 ft | 462 kts | 103° |
| 2026-04-23 20:26 | 42.21025 | -120.38001 | 36667 ft | 463 kts | 103° |
| 2026-04-23 20:27 | 42.20219 | -120.33788 | 36841 ft | 464 kts | 103° |
| 2026-04-23 20:27 | 42.19411 | -120.29574 | 37022 ft | 465 kts | 104° |
| 2026-04-23 20:27 | 42.18600 | -120.25343 | 37175 ft | 466 kts | 104° |
| 2026-04-23 20:28 | 42.16986 | -120.16932 | 37199 ft | 468 kts | 104° |
| 2026-04-23 20:28 | 42.15350 | -120.08448 | 37192 ft | 468 kts | 104° |
| 2026-04-23 20:29 | 42.13698 | -119.99970 | 37184 ft | 467 kts | 104° |
| 2026-04-23 20:29 | 42.12046 | -119.91508 | 37171 ft | 467 kts | 104° |
| 2026-04-23 20:30 | 42.10405 | -119.83102 | 37173 ft | 467 kts | 104° |
| 2026-04-23 20:30 | 42.07911 | -119.70400 | 37161 ft | 468 kts | 104° |
| 2026-04-23 20:31 | 42.06228 | -119.61923 | 37159 ft | 469 kts | 104° |
| 2026-04-23 20:31 | 42.04558 | -119.53494 | 37175 ft | 469 kts | 104° |
| 2026-04-23 20:32 | 42.02874 | -119.45010 | 37173 ft | 470 kts | 104° |
| 2026-04-23 20:32 | 42.01173 | -119.36523 | 37162 ft | 470 kts | 105° |
| 2026-04-23 20:33 | 41.99453 | -119.28027 | 37148 ft | 471 kts | 105° |
| 2026-04-23 20:33 | 41.97730 | -119.19530 | 37148 ft | 472 kts | 105° |
| 2026-04-23 20:34 | 41.96015 | -119.11078 | 37143 ft | 472 kts | 105° |
| 2026-04-23 20:34 | 41.94282 | -119.02569 | 37160 ft | 472 kts | 105° |
| 2026-04-23 20:35 | 41.92549 | -118.94053 | 37130 ft | 473 kts | 105° |
| 2026-04-23 20:35 | 41.90805 | -118.85519 | 37124 ft | 474 kts | 105° |
| 2026-04-23 20:36 | 41.89054 | -118.77036 | 37127 ft | 475 kts | 105° |
| 2026-04-23 20:36 | 41.87276 | -118.68496 | 37136 ft | 476 kts | 105° |
| 2026-04-23 20:37 | 41.85494 | -118.59958 | 37131 ft | 476 kts | 105° |
| 2026-04-23 20:37 | 41.83713 | -118.51406 | 37117 ft | 476 kts | 105° |
| 2026-04-23 20:38 | 41.81926 | -118.42840 | 37117 ft | 477 kts | 105° |
| 2026-04-23 20:38 | 41.80135 | -118.34338 | 37115 ft | 478 kts | 105° |
| 2026-04-23 20:39 | 41.78323 | -118.25778 | 37116 ft | 478 kts | 105° |
| 2026-04-23 20:39 | 41.76499 | -118.17215 | 37107 ft | 478 kts | 105° |
| 2026-04-23 20:40 | 41.74669 | -118.08638 | 37099 ft | 479 kts | 105° |
| 2026-04-23 20:40 | 41.72838 | -118.00056 | 37104 ft | 480 kts | 106° |
| 2026-04-23 20:41 | 41.71006 | -117.91531 | 37113 ft | 480 kts | 106° |
| 2026-04-23 20:41 | 41.69159 | -117.82944 | 37114 ft | 480 kts | 106° |
| 2026-04-23 20:42 | 41.67298 | -117.74355 | 37104 ft | 481 kts | 106° |
| 2026-04-23 20:42 | 41.65422 | -117.65761 | 37091 ft | 482 kts | 106° |
| 2026-04-23 20:43 | 41.63553 | -117.57217 | 37109 ft | 482 kts | 106° |
| 2026-04-23 20:43 | 41.61671 | -117.48605 | 37123 ft | 483 kts | 106° |
| 2026-04-23 20:44 | 41.59780 | -117.39995 | 37125 ft | 483 kts | 106° |
| 2026-04-23 20:44 | 41.57879 | -117.31390 | 37102 ft | 483 kts | 107° |
| 2026-04-23 20:45 | 41.55981 | -117.22835 | 37092 ft | 484 kts | 107° |
| 2026-04-23 20:45 | 41.54065 | -117.14216 | 37120 ft | 485 kts | 107° |
| 2026-04-23 20:46 | 41.52138 | -117.05590 | 37118 ft | 485 kts | 107° |
| 2026-04-23 20:46 | 41.50198 | -116.96966 | 37115 ft | 485 kts | 107° |
| 2026-04-23 20:47 | 41.48267 | -116.88396 | 37113 ft | 486 kts | 107° |
| 2026-04-23 20:47 | 41.46319 | -116.79780 | 37122 ft | 486 kts | 107° |
| 2026-04-23 20:48 | 41.44367 | -116.71162 | 37119 ft | 486 kts | 107° |
| 2026-04-23 20:48 | 41.42401 | -116.62553 | 37125 ft | 486 kts | 107° |
| 2026-04-23 20:49 | 41.40761 | -116.55400 | 37125 ft | 486 kts | 107° |
| 2026-04-23 20:49 | 41.38453 | -116.45392 | 37113 ft | 487 kts | 107° |
| 2026-04-23 20:50 | 41.36466 | -116.36781 | 37114 ft | 487 kts | 107° |
| 2026-04-23 20:50 | 41.34482 | -116.28161 | 37113 ft | 487 kts | 107° |
| 2026-04-23 20:51 | 41.32821 | -116.21002 | 37124 ft | 487 kts | 107° |
| 2026-04-23 20:51 | 41.30486 | -116.10986 | 37103 ft | 488 kts | 108° |
| 2026-04-23 20:52 | 41.28459 | -116.02364 | 37111 ft | 489 kts | 108° |
| 2026-04-23 20:52 | 41.26771 | -115.95202 | 37110 ft | 489 kts | 108° |
| 2026-04-23 20:53 | 41.24741 | -115.86578 | 37122 ft | 489 kts | 108° |
| 2026-04-23 20:53 | 41.22371 | -115.76560 | 37093 ft | 489 kts | 108° |
| 2026-04-23 20:54 | 41.20651 | -115.69342 | 37095 ft | 490 kts | 108° |
| 2026-04-23 20:54 | 41.18611 | -115.60777 | 37106 ft | 490 kts | 108° |
| 2026-04-23 20:55 | 41.16552 | -115.52154 | 37102 ft | 490 kts | 108° |
| 2026-04-23 20:55 | 41.14479 | -115.43533 | 37094 ft | 490 kts | 108° |
| 2026-04-23 20:56 | 41.12393 | -115.34924 | 37067 ft | 490 kts | 108° |
| 2026-04-23 20:56 | 41.10307 | -115.26311 | 37075 ft | 491 kts | 108° |
| 2026-04-23 20:57 | 41.08232 | -115.17751 | 37079 ft | 492 kts | 108° |
| 2026-04-23 20:57 | 41.06131 | -115.09123 | 37079 ft | 492 kts | 108° |
| 2026-04-23 20:58 | 41.04023 | -115.00498 | 37099 ft | 492 kts | 109° |
| 2026-04-23 20:58 | 41.01906 | -114.91865 | 37070 ft | 493 kts | 109° |
| 2026-04-23 20:59 | 40.99786 | -114.83290 | 37072 ft | 494 kts | 109° |
| 2026-04-23 20:59 | 40.97638 | -114.74650 | 37074 ft | 494 kts | 109° |
| 2026-04-23 21:00 | 40.95497 | -114.66018 | 37076 ft | 494 kts | 109° |
| 2026-04-23 21:00 | 40.93346 | -114.57383 | 37078 ft | 494 kts | 109° |
| 2026-04-23 21:01 | 40.91214 | -114.48818 | 37068 ft | 493 kts | 109° |
| 2026-04-23 21:01 | 40.89054 | -114.40212 | 37081 ft | 493 kts | 109° |
| 2026-04-23 21:02 | 40.86875 | -114.31609 | 37069 ft | 493 kts | 109° |
| 2026-04-23 21:02 | 40.84704 | -114.23010 | 37057 ft | 494 kts | 109° |
| 2026-04-23 21:03 | 40.82528 | -114.14412 | 37060 ft | 494 kts | 109° |
| 2026-04-23 21:03 | 40.80337 | -114.05819 | 37062 ft | 494 kts | 110° |
| 2026-04-23 21:04 | 40.78150 | -113.97288 | 37049 ft | 494 kts | 110° |
| 2026-04-23 21:04 | 40.75950 | -113.88699 | 37055 ft | 495 kts | 110° |
| 2026-04-23 21:05 | 40.73732 | -113.80085 | 36829 ft | 498 kts | 109° |
| 2026-04-23 21:05 | 40.72869 | -113.75643 | 35470 ft | 504 kts | 98° |
| 2026-04-23 21:05 | 40.72582 | -113.71040 | 34340 ft | 503 kts | 88° |
| 2026-04-23 21:06 | 40.72618 | -113.66521 | 33282 ft | 497 kts | 88° |
| 2026-04-23 21:06 | 40.72634 | -113.61998 | 32297 ft | 489 kts | 89° |
| 2026-04-23 21:06 | 40.72628 | -113.57565 | 31522 ft | 477 kts | 89° |
| 2026-04-23 21:06 | 40.72607 | -113.53282 | 31116 ft | 459 kts | 89° |
| 2026-04-23 21:07 | 40.72584 | -113.49139 | 30617 ft | 445 kts | 89° |
| 2026-04-23 21:07 | 40.72565 | -113.45130 | 30146 ft | 431 kts | 89° |
| 2026-04-23 21:07 | 40.72549 | -113.41238 | 29659 ft | 418 kts | 89° |
| 2026-04-23 21:07 | 40.72537 | -113.37460 | 29217 ft | 410 kts | 89° |
| 2026-04-23 21:08 | 40.72528 | -113.33712 | 28779 ft | 407 kts | 88° |
| 2026-04-23 21:08 | 40.72516 | -113.30041 | 28365 ft | 405 kts | 89° |
| 2026-04-23 21:08 | 40.72500 | -113.26349 | 27947 ft | 402 kts | 88° |
| 2026-04-23 21:08 | 40.72484 | -113.22680 | 27531 ft | 398 kts | 88° |
| 2026-04-23 21:09 | 40.72469 | -113.19045 | 27119 ft | 395 kts | 88° |
| 2026-04-23 21:09 | 40.72453 | -113.15433 | 26716 ft | 392 kts | 88° |
| 2026-04-23 21:09 | 40.72435 | -113.11853 | 26314 ft | 389 kts | 88° |
| 2026-04-23 21:09 | 40.72417 | -113.08297 | 25901 ft | 387 kts | 88° |
| 2026-04-23 21:10 | 40.72398 | -113.04751 | 25479 ft | 385 kts | 88° |
| 2026-04-23 21:10 | 40.72379 | -113.01274 | 25066 ft | 384 kts | 88° |
| 2026-04-23 21:10 | 40.72355 | -112.97762 | 24630 ft | 383 kts | 88° |
| 2026-04-23 21:10 | 40.72328 | -112.94254 | 24196 ft | 382 kts | 88° |
| 2026-04-23 21:11 | 40.72301 | -112.90754 | 23745 ft | 382 kts | 88° |
| 2026-04-23 21:11 | 40.72276 | -112.87251 | 23258 ft | 382 kts | 88° |
| 2026-04-23 21:11 | 40.72248 | -112.83761 | 22799 ft | 379 kts | 88° |
| 2026-04-23 21:11 | 40.72218 | -112.80298 | 22354 ft | 377 kts | 88° |
| 2026-04-23 21:12 | 40.72187 | -112.76856 | 21923 ft | 375 kts | 88° |
| 2026-04-23 21:12 | 40.72157 | -112.73431 | 21480 ft | 373 kts | 88° |
| 2026-04-23 21:12 | 40.72125 | -112.70066 | 21038 ft | 371 kts | 88° |
| 2026-04-23 21:12 | 40.72091 | -112.66672 | 20616 ft | 369 kts | 88° |
| 2026-04-23 21:13 | 40.72057 | -112.63300 | 20188 ft | 368 kts | 88° |
| 2026-04-23 21:13 | 40.72023 | -112.59942 | 19758 ft | 365 kts | 88° |
| 2026-04-23 21:13 | 40.71961 | -112.56598 | 19333 ft | 365 kts | 92° |
| 2026-04-23 21:13 | 40.71501 | -112.53306 | 18905 ft | 366 kts | 105° |
| 2026-04-23 21:14 | 40.70524 | -112.50209 | 18466 ft | 367 kts | 118° |
| 2026-04-23 21:14 | 40.69149 | -112.47375 | 18052 ft | 367 kts | 123° |
| 2026-04-23 21:14 | 40.67746 | -112.44579 | 17638 ft | 365 kts | 123° |
| 2026-04-23 21:14 | 40.66373 | -112.41825 | 17187 ft | 364 kts | 123° |
| 2026-04-23 21:15 | 40.64978 | -112.39030 | 16660 ft | 365 kts | 123° |
| 2026-04-23 21:15 | 40.63591 | -112.36259 | 16235 ft | 357 kts | 123° |
| 2026-04-23 21:15 | 40.62245 | -112.33579 | 15845 ft | 345 kts | 123° |
| 2026-04-23 21:15 | 40.60942 | -112.30990 | 15455 ft | 334 kts | 123° |
| 2026-04-23 21:16 | 40.59680 | -112.28482 | 15078 ft | 324 kts | 123° |
| 2026-04-23 21:16 | 40.58450 | -112.26037 | 14711 ft | 318 kts | 123° |
| 2026-04-23 21:16 | 40.57234 | -112.23615 | 14346 ft | 317 kts | 123° |
| 2026-04-23 21:16 | 40.56040 | -112.21234 | 13982 ft | 317 kts | 123° |
| 2026-04-23 21:17 | 40.54820 | -112.18808 | 13581 ft | 319 kts | 123° |
| 2026-04-23 21:17 | 40.53594 | -112.16374 | 13199 ft | 319 kts | 123° |
| 2026-04-23 21:17 | 40.52370 | -112.13951 | 12826 ft | 318 kts | 123° |
| 2026-04-23 21:17 | 40.51144 | -112.11530 | 12455 ft | 318 kts | 124° |
| 2026-04-23 21:18 | 40.49919 | -112.09110 | 12072 ft | 318 kts | 124° |
| 2026-04-23 21:18 | 40.48694 | -112.06696 | 11682 ft | 318 kts | 124° |
| 2026-04-23 21:18 | 40.47467 | -112.04280 | 11301 ft | 318 kts | 125° |
| 2026-04-23 21:18 | 40.46258 | -112.01897 | 10900 ft | 316 kts | 124° |
| 2026-04-23 21:19 | 40.45040 | -111.99498 | 10499 ft | 315 kts | 124° |
| 2026-04-23 21:19 | 40.43826 | -111.97102 | 10087 ft | 315 kts | 124° |
| 2026-04-23 21:19 | 40.42624 | -111.94726 | 9640 ft | 308 kts | 124° |
| 2026-04-23 21:19 | 40.41463 | -111.92438 | 9253 ft | 294 kts | 124° |
| 2026-04-23 21:20 | 40.40351 | -111.90250 | 8857 ft | 283 kts | 124° |
| 2026-04-23 21:20 | 40.39261 | -111.88169 | 8488 ft | 272 kts | 130° |
| 2026-04-23 21:20 | 40.37934 | -111.86504 | 8114 ft | 255 kts | 146° |
| 2026-04-23 21:20 | 40.36508 | -111.85288 | 7725 ft | 234 kts | 151° |
| 2026-04-23 21:21 | 40.35129 | -111.84322 | 7189 ft | 222 kts | 153° |
| 2026-04-23 21:21 | 40.33814 | -111.83356 | 6866 ft | 208 kts | 148° |
| 2026-04-23 21:21 | 40.32689 | -111.82310 | 6739 ft | 189 kts | 142° |
| 2026-04-23 21:21 | 40.31698 | -111.81286 | 6567 ft | 177 kts | 141° |
| 2026-04-23 21:22 | 40.30746 | -111.80297 | 6380 ft | 171 kts | 141° |
| 2026-04-23 21:22 | 40.29824 | -111.79365 | 6240 ft | 165 kts | 143° |
| 2026-04-23 21:22 | 40.28923 | -111.78477 | 6103 ft | 160 kts | 146° |
| 2026-04-23 21:22 | 40.28029 | -111.77633 | 5899 ft | 158 kts | 150° |
| 2026-04-23 21:23 | 40.27120 | -111.76814 | 5735 ft | 156 kts | 149° |
| 2026-04-23 21:23 | 40.26211 | -111.76052 | 5454 ft | 154 kts | 152° |
| 2026-04-23 21:23 | 40.25318 | -111.75261 | 5117 ft | 157 kts | 147° |
| 2026-04-23 21:23 | 40.24406 | -111.74462 | 4916 ft | 158 kts | 147° |
| 2026-04-23 21:24 | 40.23496 | -111.73667 | 4662 ft | 157 kts | 146° |
| 2026-04-23 21:24 | 40.22602 | -111.72859 | 4509 ft | 149 kts | 146° |
| 2026-04-23 21:24 | 40.21893 | -111.72244 | 4501 ft | 82 kts | 146° |
| 2026-04-23 21:24 | 40.21568 | -111.71963 | 4502 ft | 50 kts | 146° |
| 2026-04-23 21:25 | 40.21292 | -111.71724 | 4498 ft | 38 kts | 146° |
| 2026-04-23 21:25 | 40.21156 | -111.71606 | 4500 ft | 19 kts | 146° |
| 2026-04-23 21:25 | 40.21088 | -111.71492 | 4498 ft | 15 kts | 61° |
| 2026-04-23 21:25 | 40.21150 | -111.71391 | 4500 ft | 14 kts | 21° |
| 2026-04-23 21:26 | 40.21230 | -111.71439 | 4503 ft | 14 kts | 324° |
| 2026-04-23 21:26 | 40.21282 | -111.71484 | 4501 ft | 4 kts | 326° |
| 2026-04-23 21:26 | 40.21314 | -111.71492 | 4499 ft | 5 kts | 17° |
| 2026-04-23 21:26 | 40.21335 | -111.71458 | 4501 ft | 4 kts | 65° |
| 2026-04-23 21:27 | 40.21339 | -111.71431 | 4501 ft | 3 kts | 98° |
| 2026-04-23 21:27 | 40.21321 | -111.71391 | 4499 ft | 6 kts | 123° |
| 2026-04-23 21:27 | 40.21329 | -111.71353 | 4501 ft | 4 kts | 59° |
| 2026-04-23 21:27 | 40.21339 | -111.71330 | 4503 ft | 2 kts | 59° |
| 2026-04-23 21:28 | 40.21339 | -111.71329 | 4503 ft | 0 kts | 59° |
| 2026-04-23 21:30 | 40.21340 | -111.71329 | 4503 ft | 0 kts | 59° |